createdAt,value
2018-06-05T00:00:24.406Z,99848.70
2018-06-05T00:02:52.574Z,99849.24
2018-06-05T00:05:20.754Z,99841.67
2018-06-05T00:07:48.987Z,99839.77
2018-06-05T00:10:17.158Z,99837.34
2018-06-05T00:12:45.306Z,99833.01
2018-06-05T00:15:13.478Z,99841.11
2018-06-05T00:17:41.658Z,99835.45
2018-06-05T00:20:09.826Z,99840.29
2018-06-05T00:22:37.990Z,99846.80
2018-06-05T00:25:06.155Z,99836.00
2018-06-05T00:27:34.352Z,99841.09
2018-06-05T00:30:02.511Z,99838.12
2018-06-05T00:32:30.674Z,99838.69
2018-06-05T00:34:58.835Z,99831.41
2018-06-05T00:37:27.002Z,99835.41
2018-06-05T00:39:55.167Z,99830.83
2018-06-05T00:42:23.338Z,99839.45
2018-06-05T00:44:51.766Z,99840.26
2018-06-05T00:47:19.922Z,99840.27
2018-06-05T00:49:48.102Z,99848.32
2018-06-05T00:52:16.259Z,99846.97
2018-06-05T00:54:44.418Z,99850.23
2018-06-05T00:57:12.586Z,99849.97
2018-06-05T00:59:40.738Z,99853.69
2018-06-05T01:02:08.914Z,99854.25
2018-06-05T01:04:37.070Z,99846.95
2018-06-05T01:07:05.234Z,99854.98
2018-06-05T01:09:33.598Z,99850.38
2018-06-05T01:12:01.750Z,99853.05
2018-06-05T01:14:29.922Z,99854.36
2018-06-05T01:16:58.070Z,99855.70
2018-06-05T01:19:26.258Z,99853.01
2018-06-05T01:21:54.418Z,99855.70
2018-06-05T01:24:22.580Z,99855.16
2018-06-05T01:26:50.739Z,99858.11
2018-06-05T01:29:18.892Z,99855.41
2018-06-05T01:31:47.055Z,99862.60
2018-06-05T01:34:15.210Z,99864.69
2018-06-05T01:36:43.402Z,99869.03
2018-06-05T01:39:11.730Z,99864.99
2018-06-05T01:41:39.885Z,99870.13
2018-06-05T01:44:08.039Z,99868.58
2018-06-05T01:46:36.190Z,99870.24
2018-06-05T01:49:04.354Z,99872.42
2018-06-05T01:51:32.520Z,99873.75
2018-06-05T01:54:00.671Z,99874.09
2018-06-05T01:56:28.834Z,99881.11
2018-06-05T01:58:56.998Z,99884.88
2018-06-05T02:01:25.154Z,99884.57
2018-06-05T02:03:53.311Z,99887.34
2018-06-05T02:06:21.475Z,99891.95
2018-06-05T02:08:49.630Z,99889.77
2018-06-05T02:11:17.798Z,99885.21
2018-06-05T02:13:45.946Z,99886.00
2018-06-05T02:16:14.107Z,99889.23
2018-06-05T02:18:42.262Z,99892.22
2018-06-05T02:21:10.434Z,99886.32
2018-06-05T02:23:38.590Z,99891.20
2018-06-05T02:26:06.766Z,99894.97
2018-06-05T02:28:34.927Z,99897.13
2018-06-05T02:31:03.078Z,99897.94
2018-06-05T02:33:31.242Z,99894.17
2018-06-05T02:35:59.399Z,99892.03
2018-06-05T02:38:27.565Z,99889.57
2018-06-05T02:40:55.728Z,99890.90
2018-06-05T02:43:23.883Z,99894.69
2018-06-05T02:45:52.039Z,99896.31
2018-06-05T02:48:20.203Z,99895.72
2018-06-05T02:50:48.371Z,99892.22
2018-06-05T02:53:16.743Z,99893.28
2018-06-05T02:55:44.899Z,99891.91
2018-06-05T02:58:13.060Z,99897.29
2018-06-05T03:00:41.237Z,99895.98
2018-06-05T03:03:09.386Z,99889.24
2018-06-05T03:05:37.558Z,99883.07
2018-06-05T03:08:05.723Z,99889.27
2018-06-05T03:10:33.894Z,99894.13
2018-06-05T03:13:02.050Z,99895.20
2018-06-05T03:15:30.230Z,99899.00
2018-06-05T03:17:58.394Z,99893.61
2018-06-05T03:20:27.344Z,99892.56
2018-06-05T03:22:55.466Z,99904.70
2018-06-05T03:25:23.624Z,99907.34
2018-06-05T03:27:51.790Z,99906.02
2018-06-05T03:30:19.950Z,99897.94
2018-06-05T03:32:48.119Z,99903.23
2018-06-05T03:35:16.283Z,99907.25
2018-06-05T03:37:44.463Z,99910.21
2018-06-05T03:40:12.622Z,99915.90
2018-06-05T03:42:40.822Z,99915.34
2018-06-05T03:45:08.954Z,99917.02
2018-06-05T03:47:37.102Z,99912.22
2018-06-05T03:50:05.266Z,99914.09
2018-06-05T03:52:33.434Z,99914.06
2018-06-05T03:55:01.608Z,99913.55
2018-06-05T03:57:29.766Z,99917.06
2018-06-05T03:59:57.930Z,99918.69
2018-06-05T04:02:26.090Z,99913.89
2018-06-05T04:04:54.262Z,99921.98
2018-06-05T04:07:28.646Z,99920.66
2018-06-05T04:09:56.814Z,99920.34
2018-06-05T04:12:24.965Z,99925.14
2018-06-05T04:14:53.127Z,99919.47
2018-06-05T04:17:21.286Z,99926.44
2018-06-05T04:19:49.518Z,99922.61
2018-06-05T04:22:17.702Z,99928.05
2018-06-05T04:24:45.894Z,99927.82
2018-06-05T04:27:14.074Z,99929.77
2018-06-05T04:29:42.238Z,99927.31
2018-06-05T04:32:10.415Z,99924.81
2018-06-05T04:34:38.574Z,99928.12
2018-06-05T04:37:06.971Z,99932.95
2018-06-05T04:39:35.217Z,99934.33
2018-06-05T04:42:03.387Z,99928.67
2018-06-05T04:44:31.542Z,99927.36
2018-06-05T04:46:59.702Z,99926.34
2018-06-05T04:49:27.864Z,99942.03
2018-06-05T04:51:56.046Z,99937.70
2018-06-05T04:54:24.223Z,99937.41
2018-06-05T04:56:52.382Z,99942.38
2018-06-05T04:59:20.558Z,99940.78
2018-06-05T05:01:48.734Z,99946.45
2018-06-05T05:04:16.889Z,99946.94
2018-06-05T05:06:45.058Z,99949.65
2018-06-05T05:09:13.401Z,99945.08
2018-06-05T05:11:41.570Z,99944.52
2018-06-05T05:14:09.734Z,99947.75
2018-06-05T05:16:37.921Z,99948.61
2018-06-05T05:19:06.158Z,99946.72
2018-06-05T05:21:34.324Z,99954.04
2018-06-05T05:24:02.487Z,99947.31
2018-06-05T05:26:30.667Z,99953.25
2018-06-05T05:28:58.826Z,99952.67
2018-06-05T05:31:26.989Z,99951.36
2018-06-05T05:33:55.142Z,99949.72
2018-06-05T05:36:23.314Z,99942.70
2018-06-05T05:38:51.494Z,99940.83
2018-06-05T05:41:19.678Z,99936.80
2018-06-05T05:43:47.846Z,99945.16
2018-06-05T05:46:15.999Z,99941.41
2018-06-05T05:48:44.182Z,99938.69
2018-06-05T05:51:12.330Z,99940.58
2018-06-05T05:53:40.534Z,99941.93
2018-06-05T05:56:08.683Z,99940.85
2018-06-05T05:58:36.842Z,99948.69
2018-06-05T06:01:05.030Z,99954.65
2018-06-05T06:03:33.198Z,99952.73
2018-06-05T06:06:01.362Z,99953.83
2018-06-05T06:08:29.514Z,99962.75
2018-06-05T06:10:57.761Z,99958.44
2018-06-05T06:13:25.842Z,99954.91
2018-06-05T06:15:54.004Z,99962.73
2018-06-05T06:18:22.163Z,99964.11
2018-06-05T06:20:50.314Z,99962.51
2018-06-05T06:23:18.470Z,99971.67
2018-06-05T06:25:46.630Z,99972.22
2018-06-05T06:28:14.799Z,99974.89
2018-06-05T06:30:42.947Z,99976.75
2018-06-05T06:33:11.100Z,99970.48
2018-06-05T06:35:39.246Z,99979.69
2018-06-05T06:38:07.414Z,99975.66
2018-06-05T06:40:35.570Z,99973.28
2018-06-05T06:43:03.738Z,99980.03
2018-06-05T06:45:31.882Z,99974.33
2018-06-05T06:48:00.026Z,99982.41
2018-06-05T06:50:28.922Z,99980.77
2018-06-05T06:52:57.074Z,99979.94
2018-06-05T06:55:25.227Z,99980.92
2018-06-05T06:57:53.379Z,99971.33
2018-06-05T07:00:21.526Z,99978.80
2018-06-05T07:02:49.678Z,99980.02
2018-06-05T07:05:17.850Z,99983.89
2018-06-05T07:07:46.001Z,99981.70
2018-06-05T07:10:14.166Z,99984.38
2018-06-05T07:12:42.323Z,99989.67
2018-06-05T07:15:10.466Z,99986.14
2018-06-05T07:17:38.626Z,99988.89
2018-06-05T07:20:06.779Z,99980.41
2018-06-05T07:22:34.952Z,99986.66
2018-06-05T07:25:03.090Z,99985.17
2018-06-05T07:27:31.246Z,99991.19
2018-06-05T07:29:59.830Z,99982.12
2018-06-05T07:32:27.990Z,99981.77
2018-06-05T07:34:56.143Z,99985.13
2018-06-05T07:37:24.315Z,99993.13
2018-06-05T07:39:52.524Z,99987.44
2018-06-05T07:42:20.700Z,99989.00
2018-06-05T07:44:48.851Z,99986.43
2018-06-05T07:47:17.014Z,99985.00
2018-06-05T07:49:45.172Z,99988.42
2018-06-05T07:52:13.329Z,99994.61
2018-06-05T07:54:41.482Z,99992.59
2018-06-05T07:57:09.293Z,99987.07
2018-06-05T07:59:37.450Z,99989.82
2018-06-05T08:02:05.614Z,99987.88
2018-06-05T08:04:33.794Z,99993.48
2018-06-05T08:07:02.078Z,99987.92
2018-06-05T08:09:30.230Z,99991.79
2018-06-05T08:11:58.387Z,99992.52
2018-06-05T08:14:26.538Z,99990.59
2018-06-05T08:16:54.715Z,99990.26
2018-06-05T08:19:22.866Z,99993.20
2018-06-05T08:21:51.031Z,99991.54
2018-06-05T08:24:19.187Z,99993.56
2018-06-05T08:26:52.075Z,99992.64
2018-06-05T08:29:20.767Z,99998.12
2018-06-05T08:31:48.974Z,99993.47
2018-06-05T08:34:17.132Z,99992.25
2018-06-05T08:36:45.291Z,99991.28
2018-06-05T08:39:13.463Z,99990.23
2018-06-05T08:41:41.683Z,99998.02
2018-06-05T08:44:09.850Z,100003.06
2018-06-05T08:46:38.018Z,100004.06
2018-06-05T08:49:06.214Z,100006.04
2018-06-05T08:51:34.378Z,100003.13
2018-06-05T08:54:02.548Z,100006.71
2018-06-05T08:56:30.703Z,100010.69
2018-06-05T08:58:58.878Z,100016.60
2018-06-05T09:01:27.050Z,100018.69
2018-06-05T09:03:55.214Z,100021.07
2018-06-05T09:06:23.370Z,100015.06
2018-06-05T09:08:51.534Z,100012.48
2018-06-05T09:11:19.718Z,100009.67
2018-06-05T09:13:47.890Z,100011.90
2018-06-05T09:16:16.054Z,100007.23
2018-06-05T09:18:44.202Z,100009.98
2018-06-05T09:21:12.375Z,100011.45
2018-06-05T09:23:40.715Z,100018.97
2018-06-05T09:26:08.886Z,100016.56
2018-06-05T09:28:37.066Z,100020.72
2018-06-05T09:31:05.238Z,100019.96
2018-06-05T09:33:33.410Z,100025.66
2018-06-05T09:36:01.582Z,100025.05
2018-06-05T09:38:29.744Z,100033.20
2018-06-05T09:40:57.911Z,100025.40
2018-06-05T09:43:26.066Z,100035.27
2018-06-05T09:45:54.226Z,100030.91
2018-06-05T09:48:22.381Z,100026.41
2018-06-05T09:50:50.561Z,100031.95
2018-06-05T09:53:18.730Z,100032.30
2018-06-05T09:55:46.903Z,100026.81
2018-06-05T09:58:15.241Z,100030.86
2018-06-05T10:00:48.626Z,100028.19
2018-06-05T10:03:16.782Z,100028.11
2018-06-05T10:05:44.959Z,100025.36
2018-06-05T10:08:13.111Z,100017.97
2018-06-05T10:10:41.294Z,100017.39
2018-06-05T10:13:09.447Z,100020.11
2018-06-05T10:15:37.606Z,100019.24
2018-06-05T10:18:05.950Z,100015.16
2018-06-05T10:20:34.135Z,100016.23
2018-06-05T10:23:02.318Z,100011.67
2018-06-05T10:25:30.498Z,100013.68
2018-06-05T10:27:58.662Z,100014.38
2018-06-05T10:30:26.887Z,100011.53
2018-06-05T10:32:55.057Z,100011.45
2018-06-05T10:35:23.222Z,100009.84
2018-06-05T10:37:51.406Z,100014.27
2018-06-05T10:40:19.571Z,100009.45
2018-06-05T10:42:47.755Z,100006.91
2018-06-05T10:45:15.918Z,100005.84
2018-06-05T10:47:44.094Z,100006.47
2018-06-05T10:50:12.270Z,99997.24
2018-06-05T10:52:40.464Z,99991.84
2018-06-05T10:55:08.631Z,99991.14
2018-06-05T10:57:36.970Z,99992.53
2018-06-05T11:00:05.239Z,99996.40
2018-06-05T11:02:33.435Z,99988.83
2018-06-05T11:05:01.582Z,99992.38
2018-06-05T11:07:29.750Z,99999.53
2018-06-05T11:09:57.922Z,99992.78
2018-06-05T11:12:26.089Z,99988.98
2018-06-05T11:14:54.239Z,99990.67
2018-06-05T11:17:22.382Z,99992.25
2018-06-05T11:19:50.610Z,99992.46
2018-06-05T11:22:18.750Z,99983.41
2018-06-05T11:24:46.951Z,99985.94
2018-06-05T11:27:15.090Z,99984.59
2018-06-05T11:29:43.258Z,99986.05
2018-06-05T11:32:11.481Z,99986.63
2018-06-05T11:34:39.622Z,99982.34
2018-06-05T11:37:07.848Z,99983.09
2018-06-05T11:39:36.043Z,99983.81
2018-06-05T11:42:04.210Z,99976.41
2018-06-05T11:44:32.462Z,99976.05
2018-06-05T11:47:00.667Z,99969.45
2018-06-05T11:49:28.821Z,99969.72
2018-06-05T11:51:56.990Z,99965.42
2018-06-05T11:54:25.159Z,99962.98
2018-06-05T11:56:53.323Z,99956.53
2018-06-05T11:59:21.491Z,99963.27
2018-06-05T12:01:49.661Z,99957.76
2018-06-05T12:04:17.833Z,99954.41
2018-06-05T12:06:46.045Z,99957.17
2018-06-05T12:09:14.208Z,99953.30
2018-06-05T12:11:42.409Z,99953.87
2018-06-05T12:14:10.577Z,99950.31
2018-06-05T12:16:38.757Z,99953.91
2018-06-05T12:19:06.922Z,99960.31
2018-06-05T12:21:35.087Z,99954.69
2018-06-05T12:24:03.246Z,99954.40
2018-06-05T12:26:31.407Z,99948.77
2018-06-05T12:28:59.563Z,99947.87
2018-06-05T12:31:27.734Z,99935.11
2018-06-05T12:33:55.942Z,99939.16
2018-06-05T12:36:24.243Z,99929.03
2018-06-05T12:38:52.579Z,99937.92
2018-06-05T12:41:20.802Z,99935.45
2018-06-05T12:43:48.962Z,99933.50
2018-06-05T12:46:17.142Z,99928.78
2018-06-05T12:48:45.342Z,99930.50
2018-06-05T12:51:13.535Z,99927.13
2018-06-05T12:53:41.902Z,99928.88
2018-06-05T12:56:10.318Z,99920.95
2018-06-05T12:58:38.495Z,99921.75
2018-06-05T13:01:06.728Z,99919.86
2018-06-05T13:03:34.898Z,99929.48
2018-06-05T13:06:03.180Z,99921.27
2018-06-05T13:08:31.411Z,99919.47
2018-06-05T13:10:59.847Z,99923.41
2018-06-05T13:13:28.079Z,99919.85
2018-06-05T13:15:56.362Z,99921.77
2018-06-05T13:18:24.590Z,99922.25
2018-06-05T13:20:52.774Z,99915.83
2018-06-05T13:23:20.922Z,99918.29
2018-06-05T13:25:49.180Z,99916.23
2018-06-05T13:28:17.362Z,99922.41
2018-06-05T13:30:45.850Z,99918.16
2018-06-05T13:33:14.102Z,99915.82
2018-06-05T13:35:43.625Z,99915.03
2018-06-05T13:38:11.817Z,99911.64
2018-06-05T13:40:39.994Z,99910.94
2018-06-05T13:43:08.296Z,99915.00
2018-06-05T13:45:36.442Z,99905.94
2018-06-05T13:48:04.647Z,99899.83
2018-06-05T13:50:32.919Z,99899.89
2018-06-05T13:53:01.211Z,99897.00
2018-06-05T13:55:29.392Z,99896.48
2018-06-05T13:57:57.592Z,99893.23
2018-06-05T14:00:25.806Z,99894.84
2018-06-05T14:02:53.995Z,99891.03
2018-06-05T14:05:22.166Z,99894.34
2018-06-05T14:07:50.332Z,99890.81
2018-06-05T14:10:18.515Z,99889.83
2018-06-05T14:12:46.707Z,99888.89
2018-06-05T14:15:14.946Z,99890.91
2018-06-05T14:17:43.115Z,99888.59
2018-06-05T14:20:11.323Z,99886.98
2018-06-05T14:22:39.484Z,99884.28
2018-06-05T14:25:07.698Z,99886.16
2018-06-05T14:27:35.870Z,99880.73
2018-06-05T14:30:04.470Z,99882.41
2018-06-05T14:32:32.656Z,99875.64
2018-06-05T14:35:00.839Z,99868.20
2018-06-05T14:37:29.063Z,99872.11
2018-06-05T14:39:57.311Z,99862.08
2018-06-05T14:42:25.526Z,99857.00
2018-06-05T14:44:53.772Z,99853.88
2018-06-05T14:47:21.946Z,99855.81
2018-06-05T14:49:50.102Z,99857.74
2018-06-05T14:52:18.321Z,99854.08
2018-06-05T14:54:46.511Z,99855.88
2018-06-05T14:57:14.670Z,99855.53
2018-06-05T14:59:42.843Z,99857.22
2018-06-05T15:02:11.040Z,99856.64
2018-06-05T15:04:39.189Z,99858.83
2018-06-05T15:07:07.334Z,99855.78
2018-06-05T15:09:35.518Z,99863.41
2018-06-05T15:12:04.163Z,99853.72
2018-06-05T15:14:32.323Z,99854.25
2018-06-05T15:17:00.480Z,99845.70
2018-06-05T15:19:28.658Z,99840.23
2018-06-05T15:24:47.270Z,99841.80
2018-06-05T15:27:15.502Z,99836.77
2018-06-05T15:29:43.659Z,99842.20
2018-06-05T15:32:11.810Z,99845.18
2018-06-05T15:34:39.983Z,99839.91
2018-06-05T15:37:08.275Z,99836.19
2018-06-05T15:39:36.830Z,99842.75
2018-06-05T15:42:05.145Z,99839.56
2018-06-05T15:44:33.338Z,99838.16
2018-06-05T15:47:01.535Z,99831.12
2018-06-05T15:49:29.765Z,99832.22
2018-06-05T15:51:57.949Z,99825.98
2018-06-05T15:54:26.146Z,99833.37
2018-06-05T15:56:54.618Z,99822.45
2018-06-05T15:59:22.803Z,99821.62
2018-06-05T16:01:50.987Z,99825.41
2018-06-05T16:04:19.183Z,99834.53
2018-06-05T16:06:47.347Z,99824.00
2018-06-05T16:09:15.512Z,99824.11
2018-06-05T16:11:43.726Z,99823.04
2018-06-05T16:14:11.878Z,99824.55
2018-06-05T16:16:40.047Z,99824.05
2018-06-05T16:19:08.233Z,99823.51
2018-06-05T16:21:38.057Z,99819.53
2018-06-05T16:24:06.386Z,99815.63
2018-06-05T16:26:34.538Z,99811.13
2018-06-05T16:29:02.727Z,99815.03
2018-06-05T16:31:30.898Z,99809.09
2018-06-05T16:33:59.054Z,99810.84
2018-06-05T16:36:27.270Z,99815.42
2018-06-05T16:38:55.426Z,99806.70
2018-06-05T16:41:23.606Z,99810.13
2018-06-05T16:43:51.762Z,99811.60
2018-06-05T16:46:19.926Z,99816.29
2018-06-05T16:48:48.106Z,99813.00
2018-06-05T16:51:16.259Z,99811.20
2018-06-05T16:53:44.431Z,99815.17
2018-06-05T16:56:12.618Z,99814.97
2018-06-05T16:58:40.811Z,99813.36
2018-06-05T17:01:09.284Z,99814.64
2018-06-05T17:03:37.479Z,99809.78
2018-06-05T17:06:05.658Z,99808.52
2018-06-05T17:08:33.847Z,99810.84
2018-06-05T17:11:02.330Z,99800.55
2018-06-05T17:13:30.540Z,99799.43
2018-06-05T17:15:58.811Z,99804.26
2018-06-05T17:18:27.158Z,99797.97
2018-06-05T17:20:55.490Z,99799.19
2018-06-05T17:23:24.015Z,99793.61
2018-06-05T17:25:52.254Z,99793.86
2018-06-05T17:28:20.579Z,99791.50
2018-06-05T17:30:48.857Z,99801.14
2018-06-05T17:33:18.043Z,99803.04
2018-06-05T17:35:46.194Z,99798.39
2018-06-05T17:38:14.398Z,99798.45
2018-06-05T17:40:42.624Z,99803.35
2018-06-05T17:43:10.863Z,99803.83
2018-06-05T17:45:39.118Z,99802.73
2018-06-05T17:48:07.337Z,99805.69
2018-06-05T17:50:35.712Z,99805.69
2018-06-05T17:53:03.925Z,99805.88
2018-06-05T17:55:32.162Z,99806.14
2018-06-05T17:58:00.358Z,99808.23
2018-06-05T18:00:28.782Z,99805.77
2018-06-05T18:02:56.942Z,99806.27
2018-06-05T18:05:25.180Z,99810.31
2018-06-05T18:07:53.422Z,99812.17
2018-06-05T18:10:21.681Z,99814.98
2018-06-05T18:12:49.834Z,99815.88
2018-06-05T18:15:18.223Z,99813.56
2018-06-05T18:17:46.527Z,99822.02
2018-06-05T18:20:14.706Z,99815.16
2018-06-05T18:22:42.970Z,99818.92
2018-06-05T18:25:11.166Z,99813.89
2018-06-05T18:27:39.346Z,99821.33
2018-06-05T18:30:07.687Z,99821.98
2018-06-05T18:32:35.880Z,99824.69
2018-06-05T18:35:04.124Z,99827.80
2018-06-05T18:37:32.326Z,99828.77
2018-06-05T18:40:00.489Z,99821.98
2018-06-05T18:42:28.648Z,99827.80
2018-06-05T18:44:56.895Z,99830.34
2018-06-05T18:47:25.050Z,99818.25
2018-06-05T18:49:53.225Z,99824.94
2018-06-05T18:52:21.378Z,99825.73
2018-06-05T18:54:49.522Z,99830.99
2018-06-05T18:57:17.769Z,99825.59
2018-06-05T18:59:46.034Z,99832.36
2018-06-05T19:02:14.458Z,99838.52
2018-06-05T19:04:42.698Z,99840.89
2018-06-05T19:07:10.883Z,99838.43
2018-06-05T19:09:45.535Z,99834.27
2018-06-05T19:12:13.953Z,99837.64
2018-06-05T19:14:42.485Z,99840.17
2018-06-05T19:17:10.771Z,99843.48
2018-06-05T19:19:39.039Z,99849.05
2018-06-05T19:22:07.327Z,99844.17
2018-06-05T19:24:35.610Z,99848.86
2018-06-05T19:27:03.811Z,99848.93
2018-06-05T19:29:32.154Z,99852.15
2018-06-05T19:32:00.320Z,99854.30
2018-06-05T19:34:29.329Z,99853.72
2018-06-05T19:36:57.486Z,99858.16
2018-06-05T19:39:25.646Z,99859.92
2018-06-05T19:41:53.802Z,99858.61
2018-06-05T19:44:21.950Z,99866.43
2018-06-05T19:46:50.114Z,99868.34
2018-06-05T19:49:18.279Z,99867.27
2018-06-05T19:51:46.511Z,99872.41
2018-06-05T19:54:14.664Z,99874.90
2018-06-05T19:56:42.826Z,99882.19
2018-06-05T19:59:11.187Z,99884.45
2018-06-05T20:01:39.338Z,99889.03
2018-06-05T20:04:07.498Z,99882.08
2018-06-05T20:06:35.642Z,99886.96
2018-06-05T20:09:04.231Z,99891.28
2018-06-05T20:11:32.382Z,99891.31
2018-06-05T20:14:00.682Z,99893.24
2018-06-05T20:16:28.846Z,99890.28
2018-06-05T20:18:57.002Z,99891.36
2018-06-05T20:21:25.338Z,99888.69
2018-06-05T20:23:53.507Z,99888.17
2018-06-05T20:26:21.648Z,99887.91
2018-06-05T20:28:49.802Z,99893.30
2018-06-05T20:31:17.970Z,99898.69
2018-06-05T20:33:46.118Z,99902.77
2018-06-05T20:36:14.282Z,99901.13
2018-06-05T20:38:42.456Z,99901.44
2018-06-05T20:41:10.618Z,99907.11
2018-06-05T20:43:38.762Z,99902.78
2018-06-05T20:46:06.935Z,99906.30
2018-06-05T20:48:35.106Z,99909.53
2018-06-05T20:51:03.279Z,99914.94
2018-06-05T20:53:31.459Z,99915.47
2018-06-05T20:55:59.614Z,99916.28
2018-06-05T20:58:27.763Z,99912.80
2018-06-05T21:00:55.934Z,99912.27
2018-06-05T21:03:24.094Z,99908.17
2018-06-05T21:05:52.279Z,99907.65
2018-06-05T21:08:20.430Z,99912.80
2018-06-05T21:10:48.591Z,99911.17
2018-06-05T21:13:16.739Z,99915.22
2018-06-05T21:15:44.890Z,99922.24
2018-06-05T21:18:13.078Z,99921.70
2018-06-05T21:20:41.226Z,99923.05
2018-06-05T21:23:09.375Z,99922.77
2018-06-05T21:25:37.522Z,99917.09
2018-06-05T21:28:05.859Z,99920.34
2018-06-05T21:30:34.470Z,99921.14
2018-06-05T21:33:02.606Z,99928.72
2018-06-05T21:35:30.757Z,99929.50
2018-06-05T21:37:59.022Z,99932.23
2018-06-05T21:40:27.665Z,99927.63
2018-06-05T21:42:55.894Z,99924.11
2018-06-05T21:45:24.046Z,99921.14
2018-06-05T21:47:52.186Z,99916.81
2018-06-05T21:50:20.335Z,99916.81
2018-06-05T21:52:48.475Z,99916.83
2018-06-05T21:55:16.628Z,99926.80
2018-06-05T21:57:44.774Z,99924.91
2018-06-05T22:00:12.938Z,99923.02
2018-06-05T22:02:41.090Z,99922.23
2018-06-05T22:05:09.254Z,99912.48
2018-06-05T22:07:37.415Z,99911.66
2018-06-05T22:10:05.566Z,99919.23
2018-06-05T22:12:33.743Z,99916.80
2018-06-05T22:15:01.887Z,99919.48
2018-06-05T22:17:30.052Z,99917.86
2018-06-05T22:19:58.313Z,99919.75
2018-06-05T22:22:26.470Z,99924.90
2018-06-05T22:24:54.622Z,99927.31
2018-06-05T22:27:22.770Z,99927.04
2018-06-05T22:29:50.942Z,99922.19
2018-06-05T22:32:19.105Z,99916.75
2018-06-05T22:34:47.274Z,99922.42
2018-06-05T22:37:15.442Z,99919.45
2018-06-05T22:39:43.615Z,99924.80
2018-06-05T22:42:11.790Z,99921.27
2018-06-05T22:44:39.982Z,99922.66
2018-06-05T22:47:08.134Z,99912.94
2018-06-05T22:49:36.314Z,99911.63
2018-06-05T22:52:04.482Z,99914.05
2018-06-05T22:54:32.639Z,99912.44
2018-06-05T22:57:00.814Z,99912.67
2018-06-05T22:59:28.988Z,99912.34
2018-06-05T23:01:57.158Z,99914.25
2018-06-05T23:04:25.320Z,99911.83
2018-06-05T23:06:53.466Z,99911.27
2018-06-05T23:09:21.634Z,99906.39
2018-06-05T23:11:49.844Z,99910.99
2018-06-05T23:14:18.010Z,99920.95
2018-06-05T23:16:46.174Z,99921.48
2018-06-05T23:19:14.337Z,99923.63
2018-06-05T23:21:42.495Z,99922.78
2018-06-05T23:24:10.650Z,99921.45
2018-06-05T23:26:39.176Z,99923.31
2018-06-05T23:29:07.326Z,99922.22
2018-06-05T23:31:35.482Z,99918.70
2018-06-05T23:34:03.650Z,99919.75
2018-06-05T23:36:31.808Z,99927.30
2018-06-05T23:38:59.969Z,99929.45
2018-06-05T23:41:28.134Z,99922.66
2018-06-05T23:43:56.302Z,99919.98
2018-06-05T23:46:24.459Z,99926.97
2018-06-05T23:48:52.618Z,99925.33
2018-06-05T23:51:20.779Z,99923.18
2018-06-05T23:53:48.930Z,99924.76
2018-06-05T23:56:17.106Z,99922.06
2018-06-05T23:58:45.262Z,99923.14
